Time;durP1;ratioP1;P1;durP2;ratioP2;P2;SDS_P1;SDS_P2;PMS_P1;PMS_P2;Temp;Humidity;BMP_temperature;BMP_pressure;BME280_temperature;BME280_humidity;BME280_pressure;Samples;Min_cycle;Max_cycle;Signal;HPM_P1;HPM_P2
2022/03/10 00:01:57;;;;;;;3.70;0.70;;;28.20;82.70;;;;;;4980782;28;20097;-75
2022/03/10 00:04:24;;;;;;;4.43;0.30;;;28.30;81.10;;;;;;4979745;28;20053;-73
2022/03/10 00:06:52;;;;;;;0.80;0.15;;;28.40;82.10;;;;;;4981882;28;20019;-74
2022/03/10 00:09:19;;;;;;;5.57;0.40;;;28.50;81.50;;;;;;4976458;28;20668;-76
2022/03/10 00:11:47;;;;;;;1.45;0.57;;;28.40;80.80;;;;;;4980162;28;20113;-77
2022/03/10 00:14:15;;;;;;;2.92;0.30;;;28.20;80.90;;;;;;4978476;28;20125;-75
2022/03/10 00:16:43;;;;;;;1.55;0.40;;;28.30;81.80;;;;;;4987173;28;20037;-76
2022/03/10 00:19:16;;;;;;;3.03;0.40;;;28.50;82.20;;;;;;4981815;28;20031;-75
2022/03/10 00:21:45;;;;;;;1.17;0.20;;;28.70;80.40;;;;;;4979460;28;20035;-75
2022/03/10 00:24:12;;;;;;;1.50;0.40;;;28.80;83.00;;;;;;4981359;28;20098;-77
2022/03/10 00:26:40;;;;;;;1.52;0.20;;;28.90;80.10;;;;;;4983997;28;20034;-76
2022/03/10 00:29:08;;;;;;;2.75;0.40;;;28.90;81.20;;;;;;4978415;28;20604;-76
2022/03/10 00:31:35;;;;;;;1.60;0.22;;;29.10;82.90;;;;;;4980770;28;20061;-75
2022/03/10 00:34:03;;;;;;;3.40;0.75;;;29.40;79.80;;;;;;4982140;28;20033;-74
2022/03/10 00:36:31;;;;;;;3.95;0.40;;;29.50;79.00;;;;;;4985798;28;20035;-73
2022/03/10 00:38:58;;;;;;;1.13;0.40;;;29.50;78.30;;;;;;4979958;28;20555;-73
2022/03/10 00:41:25;;;;;;;3.53;0.43;;;29.30;79.50;;;;;;4982392;28;20344;-76
2022/03/10 00:43:53;;;;;;;2.17;0.50;;;28.90;80.40;;;;;;4981736;28;20050;-74
2022/03/10 00:46:20;;;;;;;1.90;0.28;;;28.80;79.90;;;;;;4978978;28;20061;-76
2022/03/10 00:48:48;;;;;;;2.42;0.32;;;29.00;79.50;;;;;;4980463;28;20166;-76
2022/03/10 00:51:16;;;;;;;2.85;0.60;;;29.10;79.60;;;;;;4982913;28;20019;-75
2022/03/10 00:53:44;;;;;;;2.05;0.43;;;29.20;80.00;;;;;;4981093;28;20128;-76
2022/03/10 00:56:11;;;;;;;4.72;0.70;;;29.40;80.50;;;;;;4981746;28;20045;-74
2022/03/10 00:58:39;;;;;;;3.22;0.45;;;29.40;78.50;;;;;;4979475;28;22049;-76
2022/03/10 01:01:07;;;;;;;2.00;0.57;;;29.00;78.80;;;;;;4980496;28;20030;-77
2022/03/10 01:03:34;;;;;;;1.80;0.22;;;28.80;80.80;;;;;;4982363;28;20079;-75
2022/03/10 01:06:02;;;;;;;2.35;0.20;;;29.20;81.80;;;;;;4982328;28;20112;-76
2022/03/10 01:08:29;;;;;;;1.60;0.47;;;29.10;78.30;;;;;;4981006;28;20034;-76
2022/03/10 01:10:57;;;;;;;4.25;0.40;;;28.30;78.00;;;;;;4983278;28;20045;-75
2022/03/10 01:13:24;;;;;;;4.13;0.98;;;27.70;79.30;;;;;;4983676;28;20467;-75
2022/03/10 01:15:52;;;;;;;3.90;0.50;;;27.90;80.40;;;;;;4983009;28;20034;-74
2022/03/10 01:18:19;;;;;;;1.77;0.30;;;28.20;81.20;;;;;;4981767;28;20501;-73
2022/03/10 01:20:47;;;;;;;3.50;0.40;;;28.40;81.40;;;;;;4981515;28;20352;-75
2022/03/10 01:23:14;;;;;;;1.13;0.52;;;28.60;80.80;;;;;;4989716;28;20042;-73
2022/03/10 01:25:41;;;;;;;0.90;0.22;;;28.80;80.40;;;;;;4989992;28;20165;-74
2022/03/10 01:28:09;;;;;;;3.60;0.93;;;28.80;78.60;;;;;;4991939;28;20037;-74
2022/03/10 01:30:37;;;;;;;3.78;0.55;;;28.80;79.60;;;;;;4980486;28;20019;-75
2022/03/10 01:33:04;;;;;;;1.95;0.35;;;28.80;78.70;;;;;;4989301;28;20074;-76
2022/03/10 01:35:31;;;;;;;2.10;0.20;;;28.40;77.90;;;;;;4987781;28;20030;-75
2022/03/10 01:37:58;;;;;;;3.30;0.30;;;28.10;80.20;;;;;;4986439;28;20413;-78
2022/03/10 01:40:26;;;;;;;4.35;1.10;;;28.50;82.80;;;;;;4989928;28;20033;-75
2022/03/10 01:42:53;;;;;;;2.20;0.40;;;28.80;80.50;;;;;;4990065;28;20113;-76
2022/03/10 01:45:21;;;;;;;1.58;0.88;;;28.80;78.70;;;;;;4987364;28;20038;-75
2022/03/10 01:47:48;;;;;;;1.60;0.30;;;28.80;79.60;;;;;;4983054;28;20084;-75
2022/03/10 01:50:16;;;;;;;1.85;0.63;;;28.80;81.60;;;;;;4987158;28;20045;-76
2022/03/10 01:52:45;;;;;;;3.22;0.38;;;28.70;79.60;;;;;;4988053;28;20045;-75
2022/03/10 01:55:13;;;;;;;1.15;0.40;;;28.60;80.10;;;;;;4973593;28;20676;-75
2022/03/10 01:57:43;;;;;;;0.75;0.22;;;28.70;81.20;;;;;;4986342;28;20045;-75
2022/03/10 02:00:13;;;;;;;2.08;0.80;;;28.70;78.80;;;;;;4984855;28;20038;-76
2022/03/10 02:02:41;;;;;;;1.15;0.40;;;28.80;79.30;;;;;;4988308;28;20038;-75
2022/03/10 02:05:08;;;;;;;1.27;0.38;;;29.00;81.20;;;;;;4989917;28;20033;-75
2022/03/10 02:10:23;;;;;;;3.88;0.43;;;29.40;78.20;;;;;;4981770;28;20388;-75
2022/03/10 02:12:53;;;;;;;1.65;0.30;;;29.50;78.50;;;;;;4988995;28;20030;-76
2022/03/10 02:18:06;;;;;;;1.30;0.35;;;29.40;77.40;;;;;;4923117;28;20059;-76
2022/03/10 02:20:35;;;;;;;1.05;0.22;;;29.50;79.80;;;;;;4932172;29;20035;-74
2022/03/10 02:23:03;;;;;;;2.30;0.30;;;29.60;79.30;;;;;;4938679;28;20083;-75
2022/03/10 02:25:31;;;;;;;6.20;0.50;;;29.50;80.20;;;;;;4939452;28;20059;-75
2022/03/10 02:27:59;;;;;;;4.65;0.50;;;29.50;78.20;;;;;;4933614;29;20602;-75
2022/03/10 02:30:30;;;;;;;2.67;0.55;;;29.30;77.00;;;;;;4927698;29;20138;-76
2022/03/10 02:33:01;;;;;;;4.45;0.50;;;29.30;80.10;;;;;;4933416;29;20118;-76
2022/03/10 02:35:29;;;;;;;1.27;0.20;;;29.50;78.20;;;;;;4931177;29;20486;-75
2022/03/10 02:37:57;;;;;;;0.93;0.30;;;29.40;78.00;;;;;;4929966;29;20036;-77
2022/03/10 02:40:25;;;;;;;5.25;0.82;;;29.60;78.60;;;;;;4931690;29;20056;-76
2022/03/10 02:42:53;;;;;;;1.33;0.30;;;29.60;79.60;;;;;;4932853;28;20122;-76
2022/03/10 02:45:21;;;;;;;2.75;0.68;;;29.80;79.50;;;;;;4931948;29;20469;-75
2022/03/10 02:47:48;;;;;;;2.22;0.30;;;29.70;78.30;;;;;;4931302;28;20039;-75
2022/03/10 02:50:16;;;;;;;2.00;0.60;;;29.60;78.80;;;;;;4930754;29;20024;-77
2022/03/10 02:52:44;;;;;;;1.95;0.22;;;29.80;77.30;;;;;;4925930;29;20076;-75
2022/03/10 02:55:12;;;;;;;2.72;0.40;;;29.80;79.10;;;;;;4932054;29;20045;-75
2022/03/10 02:57:40;;;;;;;2.55;0.40;;;30.00;77.20;;;;;;4926991;29;20098;-75
2022/03/10 03:00:08;;;;;;;2.85;0.60;;;30.00;76.30;;;;;;4928517;29;20160;-75
2022/03/10 03:02:36;;;;;;;2.67;0.30;;;30.00;76.30;;;;;;4923507;29;20040;-75
2022/03/10 03:05:04;;;;;;;3.10;0.60;;;30.10;78.60;;;;;;4933145;29;20122;-76
2022/03/10 03:07:32;;;;;;;1.75;0.30;;;30.10;77.30;;;;;;4931986;29;20549;-75
2022/03/10 03:09:59;;;;;;;1.77;0.20;;;30.40;76.90;;;;;;4932062;29;20049;-76
2022/03/10 03:12:26;;;;;;;3.05;0.60;;;30.40;77.60;;;;;;4934024;29;20055;-76
2022/03/10 03:14:54;;;;;;;2.85;0.30;;;30.60;77.00;;;;;;4924309;28;20028;-76
2022/03/10 03:17:21;;;;;;;4.45;0.40;;;30.40;78.60;;;;;;4928593;29;20028;-76
2022/03/10 03:19:49;;;;;;;2.58;0.95;;;30.50;80.10;;;;;;4932064;29;20023;-75
2022/03/10 03:22:16;;;;;;;3.85;0.43;;;30.50;79.10;;;;;;4932237;29;20067;-75
2022/03/10 03:24:45;;;;;;;1.60;0.35;;;30.40;77.40;;;;;;4928048;29;20051;-75
2022/03/10 03:27:12;;;;;;;2.90;0.30;;;30.40;76.30;;;;;;4924575;28;20064;-76
2022/03/10 03:29:40;;;;;;;1.27;0.30;;;30.00;73.20;;;;;;4931632;28;20024;-76
2022/03/10 03:32:07;;;;;;;2.25;0.77;;;29.50;76.10;;;;;;4944692;29;20469;-75
2022/03/10 03:34:35;;;;;;;4.25;0.57;;;29.50;76.10;;;;;;4929666;28;20108;-74
2022/03/10 03:37:02;;;;;;;1.52;0.25;;;29.50;76.30;;;;;;4927334;28;20386;-74
2022/03/10 03:39:30;;;;;;;2.08;0.22;;;29.60;77.10;;;;;;4932919;29;20115;-74
2022/03/10 03:41:57;;;;;;;0.82;0.82;;;29.80;79.90;;;;;;4929464;29;20050;-76
2022/03/10 03:44:25;;;;;;;2.67;0.30;;;30.30;78.40;;;;;;4918198;29;20462;-75
2022/03/10 03:46:52;;;;;;;2.75;0.50;;;30.20;74.40;;;;;;4941365;28;20512;-76
2022/03/10 03:49:19;;;;;;;1.35;0.52;;;30.10;73.50;;;;;;4928546;29;20031;-76
2022/03/10 03:51:47;;;;;;;0.82;0.20;;;29.90;75.70;;;;;;4933775;29;20031;-76
2022/03/10 03:54:14;;;;;;;2.55;0.30;;;30.00;75.40;;;;;;4925918;29;20574;-75
2022/03/10 03:56:41;;;;;;;1.95;0.35;;;30.00;77.70;;;;;;4930547;29;20063;-76
2022/03/10 03:59:09;;;;;;;2.30;0.20;;;29.70;76.80;;;;;;4931324;28;20070;-76
2022/03/10 04:01:36;;;;;;;2.65;0.40;;;29.80;77.30;;;;;;4918050;29;20028;-76
2022/03/10 04:04:03;;;;;;;1.52;0.50;;;30.00;78.50;;;;;;4930847;29;20420;-76
2022/03/10 04:06:31;;;;;;;2.45;0.43;;;30.30;77.00;;;;;;4931949;29;20035;-76
2022/03/10 04:08:58;;;;;;;1.52;0.30;;;30.10;74.60;;;;;;4931172;29;20067;-77
2022/03/10 04:11:26;;;;;;;2.28;0.30;;;29.70;75.00;;;;;;4932814;29;20447;-76
2022/03/10 04:13:53;;;;;;;3.28;0.85;;;29.70;78.50;;;;;;4930458;29;20047;-76
2022/03/10 04:16:20;;;;;;;2.60;0.68;;;29.80;77.80;;;;;;4929539;29;20394;-76
2022/03/10 04:18:48;;;;;;;1.35;0.55;;;30.10;76.60;;;;;;4929920;28;20390;-76
2022/03/10 04:21:15;;;;;;;1.55;0.52;;;30.20;77.10;;;;;;4929177;28;20016;-76
2022/03/10 04:23:42;;;;;;;3.95;0.52;;;29.70;77.50;;;;;;4931507;29;20051;-76
2022/03/10 04:26:10;;;;;;;2.70;0.63;;;29.40;77.60;;;;;;4930698;29;20031;-74
2022/03/10 04:28:38;;;;;;;4.22;0.50;;;29.00;77.60;;;;;;4934534;28;20162;-75
2022/03/10 04:31:05;;;;;;;0.93;0.35;;;29.10;79.90;;;;;;4924427;28;20060;-75
2022/03/10 04:33:33;;;;;;;0.38;0.28;;;29.40;79.10;;;;;;4922234;29;20028;-75
2022/03/10 04:36:01;;;;;;;2.83;0.90;;;29.60;76.30;;;;;;4930733;29;20032;-75
2022/03/10 04:38:28;;;;;;;2.15;0.32;;;30.00;78.80;;;;;;4932084;28;20534;-75
2022/03/10 04:40:56;;;;;;;3.13;0.65;;;30.10;77.40;;;;;;4931052;29;20363;-75
2022/03/10 04:43:23;;;;;;;4.43;0.57;;;29.60;76.10;;;;;;4933213;29;20118;-73
2022/03/10 04:45:50;;;;;;;4.10;0.30;;;28.90;76.90;;;;;;4922417;29;20446;-73
2022/03/10 04:48:18;;;;;;;2.13;0.50;;;28.30;77.40;;;;;;4926621;29;20277;-73
2022/03/10 04:50:47;;;;;;;3.28;0.50;;;27.80;78.90;;;;;;4933310;29;20028;-73
2022/03/10 04:53:15;;;;;;;1.50;0.28;;;28.10;80.00;;;;;;4967366;28;20550;-74
2022/03/10 04:55:42;;;;;;;3.13;0.75;;;28.70;79.50;;;;;;4930134;29;20030;-74
2022/03/10 04:58:11;;;;;;;2.03;0.40;;;29.00;79.00;;;;;;4927637;29;20028;-74
2022/03/10 05:00:38;;;;;;;1.63;0.50;;;28.70;77.50;;;;;;4936656;29;20032;-73
2022/03/10 05:03:05;;;;;;;4.50;0.68;;;28.50;78.50;;;;;;4929912;29;20043;-74
2022/03/10 05:05:33;;;;;;;2.63;0.60;;;28.30;80.30;;;;;;4924455;29;20020;-75
2022/03/10 05:08:01;;;;;;;3.92;1.08;;;28.40;80.20;;;;;;4927246;28;20039;-74
2022/03/10 05:10:28;;;;;;;4.10;0.88;;;28.40;80.00;;;;;;4926067;29;20041;-74
2022/03/10 05:12:59;;;;;;;15.77;1.65;;;28.20;80.00;;;;;;4926566;29;20467;-74
2022/03/10 05:15:28;;;;;;;3.15;0.50;;;27.60;79.80;;;;;;4926475;29;20456;-75
2022/03/10 05:17:56;;;;;;;2.45;0.50;;;27.30;80.40;;;;;;4928628;28;20038;-78
2022/03/10 05:20:25;;;;;;;3.55;0.77;;;27.30;80.10;;;;;;4930719;28;20038;-75
2022/03/10 05:22:54;;;;;;;6.07;0.88;;;27.20;79.80;;;;;;4933529;28;20043;-76
2022/03/10 05:25:31;;;;;;;10.50;1.65;;;27.00;81.60;;;;;;4931958;29;20036;-74
2022/03/10 05:27:59;;;;;;;6.72;0.82;;;27.20;82.20;;;;;;4935423;29;20039;-76
2022/03/10 05:30:26;;;;;;;3.53;0.60;;;27.10;81.50;;;;;;4931275;29;20442;-76
2022/03/10 05:32:54;;;;;;;7.43;1.15;;;27.10;81.40;;;;;;4934427;29;20359;-74
2022/03/10 05:35:21;;;;;;;4.95;0.80;;;27.10;81.60;;;;;;4930882;28;20027;-74
2022/03/10 05:37:49;;;;;;;4.20;0.70;;;27.20;81.70;;;;;;4928145;29;20031;-75
2022/03/10 05:40:21;;;;;;;3.50;2.13;;;27.10;81.80;;;;;;4929644;29;20032;-76
2022/03/10 05:42:50;;;;;;;3.83;0.70;;;26.80;81.30;;;;;;4936421;29;20047;-76
2022/03/10 05:45:20;;;;;;;3.40;0.60;;;26.50;82.70;;;;;;4932189;28;20032;-76
2022/03/10 05:47:52;;;;;;;2.28;0.40;;;26.30;81.80;;;;;;4924725;29;20104;-76
2022/03/10 05:50:20;;;;;;;6.55;0.60;;;26.00;81.50;;;;;;4928280;29;20115;-75
2022/03/10 05:52:48;;;;;;;5.47;0.70;;;25.80;83.30;;;;;;4928132;29;20767;-74
2022/03/10 05:55:16;;;;;;;7.72;1.58;;;25.60;83.00;;;;;;4927506;29;20111;-75
2022/03/10 05:57:44;;;;;;;2.92;1.38;;;25.40;84.00;;;;;;4927911;29;20032;-75
2022/03/10 06:00:14;;;;;;;5.72;1.05;;;25.40;83.70;;;;;;4927755;29;20435;-76
2022/03/10 06:02:42;;;;;;;2.42;1.33;;;25.40;84.30;;;;;;4928524;28;20035;-76
2022/03/10 06:05:10;;;;;;;8.02;1.05;;;25.50;84.30;;;;;;4932398;29;20031;-77
2022/03/10 06:07:38;;;;;;;4.68;0.70;;;25.30;83.10;;;;;;4929133;29;20031;-77
2022/03/10 06:10:06;;;;;;;1.67;0.47;;;25.00;83.70;;;;;;4934794;29;20030;-77
2022/03/10 06:12:34;;;;;;;6.65;0.82;;;24.60;84.30;;;;;;4934032;28;20035;-77
2022/03/10 06:15:04;;;;;;;3.22;0.60;;;24.40;84.50;;;;;;4925674;29;20032;-77
2022/03/10 06:17:31;;;;;;;2.42;0.88;;;24.30;84.60;;;;;;4917675;29;20024;-77
2022/03/10 06:19:59;;;;;;;1.08;0.60;;;24.20;85.60;;;;;;4931798;29;20034;-77
2022/03/10 06:22:31;;;;;;;2.42;0.57;;;24.10;85.90;;;;;;4930696;28;20192;-77
2022/03/10 06:24:59;;;;;;;5.00;1.25;;;24.10;85.70;;;;;;4930446;29;20032;-77
2022/03/10 06:27:27;;;;;;;5.75;0.88;;;24.30;87.00;;;;;;4931010;29;20491;-78
2022/03/10 06:29:55;;;;;;;2.83;0.93;;;24.40;86.30;;;;;;4933793;29;20023;-76
2022/03/10 06:32:24;;;;;;;2.03;0.40;;;24.30;85.80;;;;;;4934348;29;20032;-77
2022/03/10 06:34:54;;;;;;;2.75;0.63;;;24.20;84.80;;;;;;4933559;29;20138;-77
2022/03/10 06:37:21;;;;;;;4.50;0.60;;;23.90;85.80;;;;;;4934727;28;20035;-77
2022/03/10 06:39:49;;;;;;;2.50;0.30;;;23.80;86.20;;;;;;4933554;28;20435;-76
2022/03/10 06:42:16;;;;;;;1.52;0.35;;;23.70;85.60;;;;;;4934162;29;20032;-77
2022/03/10 06:44:44;;;;;;;3.05;0.40;;;23.50;86.90;;;;;;4933937;29;20047;-78
2022/03/10 06:47:12;;;;;;;5.07;1.00;;;23.30;87.70;;;;;;4934642;29;20042;-77
2022/03/10 06:49:39;;;;;;;3.40;0.73;;;23.30;88.20;;;;;;4942616;29;20407;-76
2022/03/10 06:52:10;;;;;;;6.35;1.65;;;23.10;88.60;;;;;;4935158;28;20502;-77
2022/03/10 06:54:39;;;;;;;3.15;0.57;;;23.00;89.20;;;;;;4933968;29;20043;-76
2022/03/10 06:57:08;;;;;;;2.10;0.40;;;23.00;89.30;;;;;;4934902;29;20042;-77
2022/03/10 06:59:35;;;;;;;2.20;0.35;;;23.10;89.50;;;;;;4932324;28;20030;-76
2022/03/10 07:02:03;;;;;;;3.92;0.40;;;23.10;89.50;;;;;;4935904;28;20047;-77
2022/03/10 07:04:31;;;;;;;4.22;0.60;;;23.00;89.70;;;;;;4932899;29;20070;-75
2022/03/10 07:06:58;;;;;;;5.22;0.60;;;22.90;89.40;;;;;;4934717;29;20031;-77
2022/03/10 07:09:26;;;;;;;4.00;1.00;;;22.80;90.10;;;;;;4930774;29;20040;-78
2022/03/10 07:11:54;;;;;;;3.63;0.77;;;22.70;90.10;;;;;;4928839;29;20035;-76
2022/03/10 07:14:21;;;;;;;3.25;1.00;;;22.70;90.50;;;;;;4932383;29;20118;-77
2022/03/10 07:16:48;;;;;;;2.55;0.73;;;22.60;90.00;;;;;;4934322;29;20108;-77
2022/03/10 07:19:16;;;;;;;5.32;0.52;;;22.50;90.30;;;;;;4933353;29;20042;-77
2022/03/10 07:21:45;;;;;;;3.28;0.90;;;22.40;90.40;;;;;;4932876;29;20513;-77
2022/03/10 07:24:13;;;;;;;4.00;0.50;;;22.40;90.70;;;;;;4933205;29;20147;-77
2022/03/10 07:26:40;;;;;;;1.85;0.40;;;22.40;91.00;;;;;;4934763;29;20031;-77
2022/03/10 07:29:08;;;;;;;2.28;0.57;;;22.40;90.90;;;;;;4929671;29;20505;-77
2022/03/10 07:31:35;;;;;;;3.50;0.40;;;22.30;91.40;;;;;;4927148;29;20028;-74
2022/03/10 07:34:02;;;;;;;2.83;0.32;;;22.40;91.60;;;;;;4925971;28;20028;-76
2022/03/10 07:36:30;;;;;;;6.75;0.63;;;22.60;91.60;;;;;;4921589;29;20126;-74
2022/03/10 07:38:57;;;;;;;3.22;0.70;;;22.60;91.50;;;;;;4927454;29;20032;-77
2022/03/10 07:41:25;;;;;;;8.68;0.90;;;22.60;91.70;;;;;;4930260;28;20035;-74
2022/03/10 07:43:53;;;;;;;4.25;0.47;;;22.70;91.70;;;;;;4929104;28;20060;-75
2022/03/10 07:46:22;;;;;;;5.25;0.80;;;22.60;91.70;;;;;;4928310;29;20402;-73
2022/03/10 07:48:51;;;;;;;1.38;0.38;;;22.60;91.70;;;;;;4923792;29;20050;-73
2022/03/10 07:51:19;;;;;;;4.22;1.00;;;22.50;91.70;;;;;;4926557;28;20185;-73
2022/03/10 07:53:47;;;;;;;3.17;0.40;;;22.50;91.70;;;;;;4930170;29;20478;-75
2022/03/10 07:56:14;;;;;;;5.35;0.80;;;22.50;91.80;;;;;;4926019;28;20031;-75
2022/03/10 07:58:42;;;;;;;3.67;0.55;;;22.40;91.70;;;;;;4926522;28;20481;-77
2022/03/10 08:01:09;;;;;;;2.75;0.40;;;22.30;92.10;;;;;;4924190;29;20039;-74
2022/03/10 08:03:38;;;;;;;2.45;0.60;;;22.40;92.20;;;;;;4928397;29;20044;-75
2022/03/10 08:06:06;;;;;;;3.08;0.50;;;22.30;92.20;;;;;;4925086;29;20043;-76
2022/03/10 08:08:33;;;;;;;6.60;1.90;;;22.30;92.40;;;;;;4923218;29;20122;-75
2022/03/10 08:11:03;;;;;;;2.15;0.70;;;22.30;92.30;;;;;;4942966;28;20038;-75
2022/03/10 08:13:31;;;;;;;2.38;0.32;;;22.30;91.90;;;;;;4929366;28;20034;-77
2022/03/10 08:15:59;;;;;;;7.30;1.05;;;22.30;92.60;;;;;;4930322;28;20556;-77
2022/03/10 08:18:28;;;;;;;6.88;0.93;;;22.20;92.50;;;;;;4932020;28;20039;-74
2022/03/10 08:20:56;;;;;;;3.67;0.70;;;22.10;92.70;;;;;;4924111;29;20058;-75
2022/03/10 08:23:24;;;;;;;5.85;0.85;;;22.00;92.50;;;;;;4925327;29;20057;-76
2022/03/10 08:25:51;;;;;;;2.38;0.77;;;22.00;92.50;;;;;;4929567;29;20035;-77
2022/03/10 08:28:20;;;;;;;4.25;0.70;;;22.00;92.70;;;;;;4925648;29;20067;-74
2022/03/10 08:30:47;;;;;;;2.42;0.77;;;22.00;92.80;;;;;;4929391;29;20059;-73
2022/03/10 08:33:15;;;;;;;3.95;0.98;;;21.90;92.50;;;;;;4931964;29;20509;-74
2022/03/10 08:35:42;;;;;;;2.58;0.52;;;21.90;92.50;;;;;;4929109;29;20059;-74
2022/03/10 08:38:11;;;;;;;2.05;0.63;;;21.80;92.10;;;;;;4927924;28;20042;-76
2022/03/10 08:40:38;;;;;;;2.90;0.75;;;21.70;92.10;;;;;;4930917;29;20071;-74
2022/03/10 08:43:08;;;;;;;4.28;0.98;;;21.70;92.30;;;;;;4926474;28;20154;-74
2022/03/10 08:45:37;;;;;;;3.80;0.82;;;21.60;92.60;;;;;;4925860;28;20027;-75
2022/03/10 08:48:05;;;;;;;3.10;0.50;;;21.50;92.70;;;;;;4923312;29;20395;-74
2022/03/10 08:50:33;;;;;;;2.28;0.98;;;21.50;93.30;;;;;;4929215;29;20165;-75
2022/03/10 08:53:00;;;;;;;4.50;0.60;;;21.40;92.90;;;;;;4930566;29;21346;-74
2022/03/10 08:55:28;;;;;;;2.33;0.40;;;21.40;93.40;;;;;;4927648;29;20024;-76
2022/03/10 08:57:55;;;;;;;3.35;0.73;;;21.50;93.60;;;;;;4928949;29;20903;-74
2022/03/10 09:00:23;;;;;;;2.10;0.50;;;21.40;93.70;;;;;;4929176;29;20028;-76
2022/03/10 09:02:50;;;;;;;3.80;0.85;;;21.40;93.40;;;;;;4925791;28;20044;-76
2022/03/10 09:05:18;;;;;;;5.60;1.13;;;21.40;93.80;;;;;;4924152;29;20028;-77
2022/03/10 09:07:45;;;;;;;3.47;0.55;;;21.40;94.20;;;;;;4923757;28;20035;-77
2022/03/10 09:10:13;;;;;;;2.63;0.50;;;21.40;94.30;;;;;;4922300;29;20502;-76
2022/03/10 09:12:40;;;;;;;4.28;0.52;;;21.40;94.50;;;;;;4921895;29;20032;-76
2022/03/10 09:15:09;;;;;;;2.50;0.45;;;21.40;94.50;;;;;;4924574;29;20107;-76
2022/03/10 09:17:37;;;;;;;2.10;0.30;;;21.40;94.20;;;;;;4922579;29;20032;-76
2022/03/10 09:20:05;;;;;;;1.55;0.60;;;21.40;94.40;;;;;;4925201;29;20039;-76
2022/03/10 09:22:33;;;;;;;1.45;0.80;;;21.40;94.80;;;;;;4929576;29;20191;-75
2022/03/10 09:25:02;;;;;;;4.53;0.70;;;21.40;94.60;;;;;;4941521;28;20063;-75
2022/03/10 09:27:30;;;;;;;3.25;0.47;;;21.40;95.00;;;;;;4926874;29;20059;-76
2022/03/10 09:29:57;;;;;;;2.08;0.50;;;21.30;95.20;;;;;;4931918;29;20039;-74
2022/03/10 09:32:24;;;;;;;3.53;0.50;;;21.40;95.30;;;;;;4928046;28;20050;-78
2022/03/10 09:34:52;;;;;;;3.33;0.30;;;21.40;95.00;;;;;;4926398;29;20024;-75
2022/03/10 09:37:19;;;;;;;3.63;0.30;;;21.30;95.00;;;;;;4932248;29;20030;-75
2022/03/10 09:39:46;;;;;;;2.75;0.50;;;21.40;95.30;;;;;;4929797;29;20370;-76
2022/03/10 09:42:15;;;;;;;2.38;0.73;;;21.40;95.60;;;;;;4934058;29;20039;-76
2022/03/10 09:44:47;;;;;;;5.28;1.02;;;21.40;95.30;;;;;;4930038;29;20092;-77
2022/03/10 09:47:15;;;;;;;3.38;1.00;;;21.40;95.40;;;;;;4934677;29;20051;-76
2022/03/10 09:49:43;;;;;;;1.77;0.68;;;21.40;95.20;;;;;;4929766;29;20030;-74
2022/03/10 09:52:12;;;;;;;2.40;0.35;;;21.40;95.50;;;;;;4933960;29;20027;-75
2022/03/10 09:54:40;;;;;;;2.20;0.50;;;21.30;95.50;;;;;;4931228;29;20035;-76
2022/03/10 09:57:09;;;;;;;4.78;1.27;;;21.30;95.80;;;;;;4919467;29;20126;-76
2022/03/10 09:59:52;;;;;;;2.42;0.52;;;21.30;95.90;;;;;;4931594;29;20032;-74
2022/03/10 10:02:20;;;;;;;2.20;0.38;;;21.20;95.90;;;;;;4931500;29;20150;-75
2022/03/10 10:04:48;;;;;;;3.58;0.88;;;21.20;96.00;;;;;;4933375;29;20552;-75
2022/03/10 10:07:21;;;;;;;1.30;0.30;;;21.10;95.90;;;;;;4941539;28;20031;-75
2022/03/10 10:09:54;;;;;;;2.35;0.77;;;21.10;96.00;;;;;;4930600;29;20035;-75
2022/03/10 10:12:29;;;;;;;2.05;0.40;;;21.10;96.10;;;;;;4930723;29;20107;-76
2022/03/10 10:14:58;;;;;;;3.63;0.40;;;21.00;96.20;;;;;;4932371;29;20039;-74
2022/03/10 10:17:33;;;;;;;2.45;0.90;;;21.00;96.50;;;;;;4930970;29;20477;-75
2022/03/10 10:20:01;;;;;;;5.18;0.40;;;21.00;96.60;;;;;;4930534;29;20051;-76
2022/03/10 10:22:30;;;;;;;3.08;0.30;;;21.00;96.60;;;;;;4926451;29;20083;-74
2022/03/10 10:25:05;;;;;;;5.57;0.70;;;20.90;96.60;;;;;;4932222;29;20035;-74
2022/03/10 10:27:34;;;;;;;3.95;1.30;;;20.90;97.00;;;;;;4932720;29;21324;-75
2022/03/10 10:30:08;;;;;;;3.65;0.52;;;20.90;97.00;;;;;;4930677;29;20032;-75
2022/03/10 10:32:46;;;;;;;2.80;1.23;;;21.00;97.20;;;;;;4923808;29;20032;-75
2022/03/10 10:35:20;;;;;;;5.80;1.38;;;20.90;97.20;;;;;;4927942;29;20056;-75
2022/03/10 10:37:50;;;;;;;4.60;0.77;;;20.90;97.50;;;;;;4928838;29;20099;-78
2022/03/10 10:40:22;;;;;;;5.35;1.25;;;20.90;97.50;;;;;;4931641;28;20051;-75
2022/03/10 10:42:49;;;;;;;3.08;1.35;;;20.90;97.40;;;;;;4932370;29;20451;-75
2022/03/10 10:45:42;;;;;;;4.25;1.05;;;20.90;97.50;;;;;;4926588;29;20062;-73
2022/03/10 10:48:12;;;;;;;2.58;1.10;;;20.90;97.60;;;;;;4924430;28;20059;-75
2022/03/10 10:50:43;;;;;;;1.73;0.70;;;20.90;97.50;;;;;;4925241;28;20032;-76
2022/03/10 10:53:30;;;;;;;2.63;0.50;;;20.90;97.60;;;;;;4931538;29;20032;-76
2022/03/10 10:55:58;;;;;;;5.28;0.90;;;20.80;97.70;;;;;;4927402;29;20020;-77
2022/03/10 10:58:26;;;;;;;3.95;0.60;;;20.80;97.80;;;;;;4931584;28;20044;-77
2022/03/10 11:00:54;;;;;;;2.70;0.40;;;20.80;97.70;;;;;;4931621;29;20028;-75
2022/03/10 11:03:36;;;;;;;2.85;0.80;;;20.80;97.90;;;;;;4932564;29;20039;-74
2022/03/10 11:06:04;;;;;;;6.07;0.73;;;20.80;98.00;;;;;;4931497;29;20016;-76
2022/03/10 11:08:31;;;;;;;5.45;0.73;;;20.80;98.10;;;;;;4926792;29;20521;-76
2022/03/10 11:10:59;;;;;;;3.67;0.63;;;20.80;98.10;;;;;;4925646;29;20031;-75
2022/03/10 11:13:28;;;;;;;8.45;1.20;;;20.80;98.10;;;;;;4931345;29;20106;-75
2022/03/10 11:15:55;;;;;;;2.50;0.80;;;20.80;98.00;;;;;;4926600;29;20036;-75
2022/03/10 11:18:23;;;;;;;4.82;0.88;;;20.80;98.20;;;;;;4924048;29;20031;-75
2022/03/10 11:21:12;;;;;;;4.47;1.40;;;20.80;98.20;;;;;;4927393;29;20410;-76
2022/03/10 11:23:56;;;;;;;5.40;0.90;;;20.80;98.20;;;;;;4925120;29;20106;-75
2022/03/10 11:26:27;;;;;;;3.53;0.70;;;20.80;98.30;;;;;;4920428;29;20038;-77
2022/03/10 11:28:57;;;;;;;2.42;0.70;;;20.80;98.30;;;;;;4928277;29;20111;-75
2022/03/10 11:31:27;;;;;;;2.38;0.47;;;20.70;98.40;;;;;;4926237;29;20039;-74
2022/03/10 11:33:54;;;;;;;2.45;0.77;;;20.70;98.40;;;;;;4928560;28;20096;-75
2022/03/10 11:36:24;;;;;;;4.70;0.63;;;20.60;98.50;;;;;;4928793;29;20038;-75
2022/03/10 11:38:54;;;;;;;3.20;1.13;;;20.60;98.80;;;;;;4926811;29;20355;-74
2022/03/10 11:41:28;;;;;;;3.72;0.65;;;20.60;98.90;;;;;;4930117;28;20058;-74
2022/03/10 11:44:01;;;;;;;3.10;0.68;;;20.50;99.00;;;;;;4925224;29;20131;-75
2022/03/10 11:46:31;;;;;;;5.45;1.08;;;20.40;99.00;;;;;;4928029;29;20087;-77
2022/03/10 11:49:02;;;;;;;2.95;0.52;;;20.30;99.10;;;;;;4925094;29;20036;-78
2022/03/10 11:51:48;;;;;;;1.95;0.47;;;20.20;99.10;;;;;;4929715;29;20040;-77
2022/03/10 11:54:30;;;;;;;1.52;0.82;;;20.10;99.40;;;;;;4920635;29;20035;-76
2022/03/10 11:57:06;;;;;;;3.10;0.60;;;20.00;99.70;;;;;;4929495;29;20032;-75
2022/03/10 11:59:37;;;;;;;3.40;0.60;;;19.90;99.90;;;;;;4926504;29;20035;-74
2022/03/10 12:02:10;;;;;;;3.72;1.25;;;19.80;99.90;;;;;;4924840;29;20408;-74
2022/03/10 12:04:41;;;;;;;2.40;0.57;;;19.80;99.90;;;;;;4924710;29;20329;-75
2022/03/10 12:07:16;;;;;;;3.42;0.40;;;19.70;99.90;;;;;;4924874;29;20031;-75
2022/03/10 12:10:05;;;;;;;2.75;0.70;;;19.60;99.90;;;;;;4924791;29;20065;-74
2022/03/10 12:12:37;;;;;;;2.05;0.40;;;19.50;99.90;;;;;;4929609;29;20036;-74
2022/03/10 12:15:31;;;;;;;3.13;0.40;;;19.40;99.90;;;;;;4927325;29;20340;-74
2022/03/10 12:18:12;;;;;;;2.25;0.55;;;19.30;99.90;;;;;;4928547;29;20046;-73
2022/03/10 12:20:41;;;;;;;5.68;0.60;;;19.30;99.90;;;;;;4926548;29;20039;-74
2022/03/10 12:23:12;;;;;;;3.22;0.60;;;19.30;99.90;;;;;;4931434;29;20044;-74
2022/03/10 12:25:58;;;;;;;2.65;0.50;;;19.30;99.90;;;;;;4930334;28;20054;-76
2022/03/10 12:28:25;;;;;;;;;;;19.30;99.90;;;;;;4929085;29;20434;-76
2022/03/10 12:31:14;;;;;;;1.40;0.30;;;19.30;99.90;;;;;;4926230;29;19921;-75
2022/03/10 12:33:58;;;;;;;4.40;0.50;;;19.30;99.90;;;;;;4930185;29;20506;-73
2022/03/10 12:36:37;;;;;;;4.03;0.47;;;19.30;99.90;;;;;;4929759;29;20146;-74
2022/03/10 12:39:10;;;;;;;5.80;0.60;;;19.40;99.90;;;;;;4929820;29;20352;-73
2022/03/10 12:41:42;;;;;;;4.60;1.88;;;19.50;99.90;;;;;;4923111;29;20050;-74
2022/03/10 12:44:12;;;;;;;2.90;0.52;;;19.50;99.90;;;;;;4927411;29;20047;-75
2022/03/10 12:46:44;;;;;;;4.95;1.08;;;19.50;99.90;;;;;;4929700;28;20023;-76
2022/03/10 12:49:37;;;;;;;3.53;0.68;;;19.60;99.90;;;;;;4928656;29;20040;-75
2022/03/10 12:52:16;;;;;;;3.60;0.52;;;19.60;99.90;;;;;;4923332;29;20028;-73
2022/03/10 12:54:46;;;;;;;6.00;0.57;;;19.70;99.90;;;;;;4928387;29;20034;-74
2022/03/10 12:57:14;;;;;;;2.90;0.70;;;19.80;99.90;;;;;;4923715;29;20040;-76
2022/03/10 12:59:42;;;;;;;3.83;0.60;;;19.80;99.90;;;;;;4930422;29;20153;-76
2022/03/10 13:02:13;;;;;;;2.10;0.60;;;19.80;99.90;;;;;;4938479;29;20565;-75
2022/03/10 13:04:58;;;;;;;1.67;0.47;;;19.70;99.90;;;;;;4930753;29;20383;-77